sensor_id;sensor_type;location;lat;lon;timestamp;temperature;humidity
55173;DHT22;41061;52.822;6.860;2023-08-31T00:02:15;11.80;99.90
55173;DHT22;41061;52.822;6.860;2023-08-31T00:04:41;11.70;99.90
55173;DHT22;41061;52.822;6.860;2023-08-31T00:07:06;11.70;99.90
55173;DHT22;41061;52.822;6.860;2023-08-31T00:09:32;11.70;99.90
55173;DHT22;41061;52.822;6.860;2023-08-31T00:12:00;11.70;99.90
55173;DHT22;41061;52.822;6.860;2023-08-31T00:14:27;11.70;99.90
55173;DHT22;41061;52.822;6.860;2023-08-31T00:16:53;11.70;99.90
55173;DHT22;41061;52.822;6.860;2023-08-31T00:19:19;11.70;99.90
55173;DHT22;41061;52.822;6.860;2023-08-31T00:21:45;11.70;99.90
55173;DHT22;41061;52.822;6.860;2023-08-31T00:24:11;11.60;99.90
55173;DHT22;41061;52.822;6.860;2023-08-31T00:26:37;11.60;99.90
55173;DHT22;41061;52.822;6.860;2023-08-31T00:29:09;11.60;99.90
55173;DHT22;41061;52.822;6.860;2023-08-31T00:31:41;11.60;99.90
55173;DHT22;41061;52.822;6.860;2023-08-31T00:34:07;11.50;99.90
55173;DHT22;41061;52.822;6.860;2023-08-31T00:36:33;11.50;99.90
55173;DHT22;41061;52.822;6.860;2023-08-31T00:39:06;11.50;99.90
55173;DHT22;41061;52.822;6.860;2023-08-31T00:41:34;11.50;99.90
55173;DHT22;41061;52.822;6.860;2023-08-31T00:44:00;11.50;99.90
55173;DHT22;41061;52.822;6.860;2023-08-31T00:46:25;11.40;99.90
55173;DHT22;41061;52.822;6.860;2023-08-31T00:48:54;11.40;99.90
55173;DHT22;41061;52.822;6.860;2023-08-31T00:51:20;11.40;99.90
55173;DHT22;41061;52.822;6.860;2023-08-31T00:53:46;11.40;99.90
55173;DHT22;41061;52.822;6.860;2023-08-31T00:56:12;11.40;99.90
55173;DHT22;41061;52.822;6.860;2023-08-31T00:58:38;11.40;99.90
55173;DHT22;41061;52.822;6.860;2023-08-31T01:09:36;11.40;99.90
55173;DHT22;41061;52.822;6.860;2023-08-31T01:12:08;11.40;99.90
55173;DHT22;41061;52.822;6.860;2023-08-31T01:14:47;11.40;99.90
55173;DHT22;41061;52.822;6.860;2023-08-31T01:17:17;11.40;99.90
55173;DHT22;41061;52.822;6.860;2023-08-31T01:25:02;11.40;99.90
55173;DHT22;41061;52.822;6.860;2023-08-31T01:27:32;11.40;99.90
55173;DHT22;41061;52.822;6.860;2023-08-31T01:29:58;11.40;99.90
55173;DHT22;41061;52.822;6.860;2023-08-31T01:32:25;11.40;99.90
55173;DHT22;41061;52.822;6.860;2023-08-31T01:34:52;11.40;99.90
55173;DHT22;41061;52.822;6.860;2023-08-31T01:37:39;11.40;99.90
55173;DHT22;41061;52.822;6.860;2023-08-31T01:40:13;11.40;99.90
55173;DHT22;41061;52.822;6.860;2023-08-31T01:42:42;11.40;99.90
55173;DHT22;41061;52.822;6.860;2023-08-31T01:45:10;11.30;99.90
55173;DHT22;41061;52.822;6.860;2023-08-31T01:47:36;11.30;99.90
55173;DHT22;41061;52.822;6.860;2023-08-31T01:50:02;11.30;99.90
55173;DHT22;41061;52.822;6.860;2023-08-31T01:52:28;11.30;99.90
55173;DHT22;41061;52.822;6.860;2023-08-31T01:54:53;11.30;99.90
55173;DHT22;41061;52.822;6.860;2023-08-31T01:57:19;11.30;99.90
55173;DHT22;41061;52.822;6.860;2023-08-31T01:59:45;11.20;99.90
55173;DHT22;41061;52.822;6.860;2023-08-31T02:02:11;11.20;99.90
55173;DHT22;41061;52.822;6.860;2023-08-31T02:04:36;11.30;99.90
55173;DHT22;41061;52.822;6.860;2023-08-31T02:07:02;11.20;99.90
55173;DHT22;41061;52.822;6.860;2023-08-31T02:09:28;11.20;99.90
55173;DHT22;41061;52.822;6.860;2023-08-31T02:11:54;11.20;99.90
55173;DHT22;41061;52.822;6.860;2023-08-31T02:14:19;11.20;99.90
55173;DHT22;41061;52.822;6.860;2023-08-31T02:16:45;11.20;99.90
55173;DHT22;41061;52.822;6.860;2023-08-31T02:19:11;11.20;99.90
55173;DHT22;41061;52.822;6.860;2023-08-31T02:21:36;11.20;99.90
55173;DHT22;41061;52.822;6.860;2023-08-31T02:24:02;11.10;99.90
55173;DHT22;41061;52.822;6.860;2023-08-31T02:26:28;11.10;99.90
55173;DHT22;41061;52.822;6.860;2023-08-31T02:28:54;11.10;99.90
55173;DHT22;41061;52.822;6.860;2023-08-31T02:31:20;11.10;99.90
55173;DHT22;41061;52.822;6.860;2023-08-31T02:33:46;11.10;99.90
55173;DHT22;41061;52.822;6.860;2023-08-31T02:36:12;11.10;99.90
55173;DHT22;41061;52.822;6.860;2023-08-31T02:38:38;11.10;99.90
55173;DHT22;41061;52.822;6.860;2023-08-31T02:41:04;11.10;99.90
55173;DHT22;41061;52.822;6.860;2023-08-31T02:43:29;11.10;99.90
55173;DHT22;41061;52.822;6.860;2023-08-31T02:46:02;11.20;99.90
55173;DHT22;41061;52.822;6.860;2023-08-31T02:48:29;11.20;99.90
55173;DHT22;41061;52.822;6.860;2023-08-31T02:50:57;11.20;99.90
55173;DHT22;41061;52.822;6.860;2023-08-31T02:53:24;11.30;99.90
55173;DHT22;41061;52.822;6.860;2023-08-31T02:55:49;11.30;99.90
55173;DHT22;41061;52.822;6.860;2023-08-31T02:58:16;11.30;99.90
55173;DHT22;41061;52.822;6.860;2023-08-31T03:00:42;11.30;99.90
55173;DHT22;41061;52.822;6.860;2023-08-31T03:03:11;11.30;99.90
55173;DHT22;41061;52.822;6.860;2023-08-31T03:05:36;11.30;99.90
55173;DHT22;41061;52.822;6.860;2023-08-31T03:08:02;11.30;99.90
55173;DHT22;41061;52.822;6.860;2023-08-31T03:10:28;11.30;99.90
55173;DHT22;41061;52.822;6.860;2023-08-31T03:12:54;11.30;99.90
55173;DHT22;41061;52.822;6.860;2023-08-31T03:15:20;11.20;99.90
55173;DHT22;41061;52.822;6.860;2023-08-31T03:17:46;11.20;99.90
55173;DHT22;41061;52.822;6.860;2023-08-31T03:20:11;11.20;99.90
55173;DHT22;41061;52.822;6.860;2023-08-31T03:22:37;11.20;99.90
55173;DHT22;41061;52.822;6.860;2023-08-31T03:25:03;11.20;99.90
55173;DHT22;41061;52.822;6.860;2023-08-31T03:27:29;11.10;99.90
55173;DHT22;41061;52.822;6.860;2023-08-31T03:29:55;11.10;99.90
55173;DHT22;41061;52.822;6.860;2023-08-31T03:32:20;11.10;99.90
55173;DHT22;41061;52.822;6.860;2023-08-31T03:34:46;11.10;99.90
55173;DHT22;41061;52.822;6.860;2023-08-31T03:37:12;11.10;99.90
55173;DHT22;41061;52.822;6.860;2023-08-31T03:39:38;11.10;99.90
55173;DHT22;41061;52.822;6.860;2023-08-31T03:42:05;11.10;99.90
55173;DHT22;41061;52.822;6.860;2023-08-31T03:44:31;11.00;99.90
55173;DHT22;41061;52.822;6.860;2023-08-31T03:46:57;11.00;99.90
55173;DHT22;41061;52.822;6.860;2023-08-31T03:49:23;11.00;99.90
55173;DHT22;41061;52.822;6.860;2023-08-31T03:51:49;11.00;99.90
55173;DHT22;41061;52.822;6.860;2023-08-31T03:54:15;11.10;99.90
55173;DHT22;41061;52.822;6.860;2023-08-31T03:56:40;11.10;99.90
55173;DHT22;41061;52.822;6.860;2023-08-31T03:59:06;11.10;99.90
55173;DHT22;41061;52.822;6.860;2023-08-31T04:01:32;11.10;99.90
55173;DHT22;41061;52.822;6.860;2023-08-31T04:03:58;11.10;99.90
55173;DHT22;41061;52.822;6.860;2023-08-31T04:06:24;11.10;99.90
55173;DHT22;41061;52.822;6.860;2023-08-31T04:08:49;11.10;99.90
55173;DHT22;41061;52.822;6.860;2023-08-31T04:11:15;11.10;99.90
55173;DHT22;41061;52.822;6.860;2023-08-31T04:13:41;11.10;99.90
55173;DHT22;41061;52.822;6.860;2023-08-31T04:16:07;11.20;99.90
55173;DHT22;41061;52.822;6.860;2023-08-31T04:18:33;11.10;99.90
55173;DHT22;41061;52.822;6.860;2023-08-31T04:20:59;11.10;99.90
55173;DHT22;41061;52.822;6.860;2023-08-31T04:23:28;11.10;99.90
55173;DHT22;41061;52.822;6.860;2023-08-31T04:25:54;11.10;99.90
55173;DHT22;41061;52.822;6.860;2023-08-31T04:28:20;11.10;99.90
55173;DHT22;41061;52.822;6.860;2023-08-31T04:30:46;11.10;99.90
55173;DHT22;41061;52.822;6.860;2023-08-31T04:33:11;11.10;99.90
55173;DHT22;41061;52.822;6.860;2023-08-31T04:35:37;11.20;99.90
55173;DHT22;41061;52.822;6.860;2023-08-31T04:38:03;11.10;99.90
55173;DHT22;41061;52.822;6.860;2023-08-31T04:40:29;11.20;99.90
55173;DHT22;41061;52.822;6.860;2023-08-31T04:42:55;11.20;99.90
55173;DHT22;41061;52.822;6.860;2023-08-31T04:45:20;11.20;99.90
55173;DHT22;41061;52.822;6.860;2023-08-31T04:47:46;11.20;99.90
55173;DHT22;41061;52.822;6.860;2023-08-31T04:50:12;11.20;99.90
55173;DHT22;41061;52.822;6.860;2023-08-31T04:52:37;11.20;99.90
55173;DHT22;41061;52.822;6.860;2023-08-31T04:55:06;11.20;99.90
55173;DHT22;41061;52.822;6.860;2023-08-31T04:57:35;11.20;99.90
55173;DHT22;41061;52.822;6.860;2023-08-31T05:00:01;11.20;99.90
55173;DHT22;41061;52.822;6.860;2023-08-31T05:02:28;11.20;99.90
55173;DHT22;41061;52.822;6.860;2023-08-31T05:04:53;11.20;99.90
55173;DHT22;41061;52.822;6.860;2023-08-31T05:07:19;11.20;99.90
55173;DHT22;41061;52.822;6.860;2023-08-31T05:09:45;11.20;99.90
55173;DHT22;41061;52.822;6.860;2023-08-31T05:12:11;11.20;99.90
55173;DHT22;41061;52.822;6.860;2023-08-31T05:14:36;11.20;99.90
55173;DHT22;41061;52.822;6.860;2023-08-31T05:17:06;11.20;99.90
55173;DHT22;41061;52.822;6.860;2023-08-31T05:19:32;11.30;99.90
55173;DHT22;41061;52.822;6.860;2023-08-31T05:21:58;11.20;99.90
55173;DHT22;41061;52.822;6.860;2023-08-31T05:24:23;11.20;99.90
55173;DHT22;41061;52.822;6.860;2023-08-31T05:26:50;11.30;99.90
55173;DHT22;41061;52.822;6.860;2023-08-31T05:29:15;11.30;99.90
55173;DHT22;41061;52.822;6.860;2023-08-31T05:31:41;11.30;99.90
55173;DHT22;41061;52.822;6.860;2023-08-31T05:34:09;11.30;99.90
55173;DHT22;41061;52.822;6.860;2023-08-31T05:36:36;11.40;99.90
55173;DHT22;41061;52.822;6.860;2023-08-31T05:39:02;11.40;99.90
55173;DHT22;41061;52.822;6.860;2023-08-31T05:41:28;11.50;99.90
55173;DHT22;41061;52.822;6.860;2023-08-31T05:43:54;11.50;99.90
55173;DHT22;41061;52.822;6.860;2023-08-31T05:46:19;11.60;99.90
55173;DHT22;41061;52.822;6.860;2023-08-31T05:48:45;11.70;99.90
55173;DHT22;41061;52.822;6.860;2023-08-31T05:51:11;11.70;99.90
55173;DHT22;41061;52.822;6.860;2023-08-31T05:53:37;11.80;99.90
55173;DHT22;41061;52.822;6.860;2023-08-31T05:56:03;11.80;99.90
55173;DHT22;41061;52.822;6.860;2023-08-31T05:58:34;11.90;99.90
55173;DHT22;41061;52.822;6.860;2023-08-31T06:01:00;12.00;99.90
55173;DHT22;41061;52.822;6.860;2023-08-31T06:03:26;12.00;99.90
55173;DHT22;41061;52.822;6.860;2023-08-31T06:05:53;12.10;99.90
55173;DHT22;41061;52.822;6.860;2023-08-31T06:08:18;12.10;99.90
55173;DHT22;41061;52.822;6.860;2023-08-31T06:10:44;12.30;99.90
55173;DHT22;41061;52.822;6.860;2023-08-31T06:13:10;12.40;99.90
55173;DHT22;41061;52.822;6.860;2023-08-31T06:15:36;12.30;99.90
55173;DHT22;41061;52.822;6.860;2023-08-31T06:18:01;12.40;99.90
55173;DHT22;41061;52.822;6.860;2023-08-31T06:20:28;12.50;99.90
55173;DHT22;41061;52.822;6.860;2023-08-31T06:22:55;12.60;99.90
55173;DHT22;41061;52.822;6.860;2023-08-31T06:25:21;12.50;99.90
55173;DHT22;41061;52.822;6.860;2023-08-31T06:27:48;12.60;99.90
55173;DHT22;41061;52.822;6.860;2023-08-31T06:30:14;12.60;99.90
55173;DHT22;41061;52.822;6.860;2023-08-31T06:32:44;12.70;99.90
55173;DHT22;41061;52.822;6.860;2023-08-31T06:35:14;12.80;99.90
55173;DHT22;41061;52.822;6.860;2023-08-31T06:37:41;12.80;99.90
55173;DHT22;41061;52.822;6.860;2023-08-31T06:40:08;12.90;99.90
55173;DHT22;41061;52.822;6.860;2023-08-31T06:42:35;12.90;99.90
55173;DHT22;41061;52.822;6.860;2023-08-31T06:45:02;13.00;99.90
55173;DHT22;41061;52.822;6.860;2023-08-31T06:47:28;13.10;99.90
55173;DHT22;41061;52.822;6.860;2023-08-31T06:49:53;13.20;99.90
55173;DHT22;41061;52.822;6.860;2023-08-31T06:52:19;13.20;99.90
55173;DHT22;41061;52.822;6.860;2023-08-31T06:54:45;13.30;99.90
55173;DHT22;41061;52.822;6.860;2023-08-31T06:57:10;13.40;99.90
55173;DHT22;41061;52.822;6.860;2023-08-31T06:59:36;13.40;99.90
55173;DHT22;41061;52.822;6.860;2023-08-31T07:02:02;13.50;99.90
55173;DHT22;41061;52.822;6.860;2023-08-31T07:04:27;13.60;99.90
55173;DHT22;41061;52.822;6.860;2023-08-31T07:06:53;13.60;99.90
55173;DHT22;41061;52.822;6.860;2023-08-31T07:09:19;13.70;99.90
55173;DHT22;41061;52.822;6.860;2023-08-31T07:11:44;13.70;99.90
55173;DHT22;41061;52.822;6.860;2023-08-31T07:14:10;13.80;99.90
55173;DHT22;41061;52.822;6.860;2023-08-31T07:16:36;13.90;99.90
55173;DHT22;41061;52.822;6.860;2023-08-31T07:19:02;14.00;99.90
55173;DHT22;41061;52.822;6.860;2023-08-31T07:21:28;14.00;99.90
55173;DHT22;41061;52.822;6.860;2023-08-31T07:23:54;14.10;99.90
55173;DHT22;41061;52.822;6.860;2023-08-31T07:26:20;14.20;99.90
55173;DHT22;41061;52.822;6.860;2023-08-31T07:28:46;14.40;99.90
55173;DHT22;41061;52.822;6.860;2023-08-31T07:31:12;14.50;99.90
55173;DHT22;41061;52.822;6.860;2023-08-31T07:33:39;14.60;99.90
55173;DHT22;41061;52.822;6.860;2023-08-31T07:36:05;14.70;99.90
55173;DHT22;41061;52.822;6.860;2023-08-31T07:38:32;14.70;99.90
55173;DHT22;41061;52.822;6.860;2023-08-31T07:40:58;14.80;99.90
55173;DHT22;41061;52.822;6.860;2023-08-31T07:43:25;14.90;99.90
55173;DHT22;41061;52.822;6.860;2023-08-31T07:45:53;15.00;99.90
55173;DHT22;41061;52.822;6.860;2023-08-31T07:48:19;15.10;99.90
55173;DHT22;41061;52.822;6.860;2023-08-31T07:50:45;15.10;99.90
55173;DHT22;41061;52.822;6.860;2023-08-31T07:53:11;15.20;99.90
55173;DHT22;41061;52.822;6.860;2023-08-31T07:55:38;15.30;99.90
55173;DHT22;41061;52.822;6.860;2023-08-31T07:58:04;15.40;99.90
55173;DHT22;41061;52.822;6.860;2023-08-31T08:07:48;15.80;99.90
55173;DHT22;41061;52.822;6.860;2023-08-31T08:10:15;15.80;99.90
55173;DHT22;41061;52.822;6.860;2023-08-31T08:12:42;15.70;99.90
55173;DHT22;41061;52.822;6.860;2023-08-31T08:15:12;15.80;99.90
55173;DHT22;41061;52.822;6.860;2023-08-31T08:17:38;15.90;99.90
55173;DHT22;41061;52.822;6.860;2023-08-31T08:20:06;16.00;99.90
55173;DHT22;41061;52.822;6.860;2023-08-31T08:22:32;16.20;99.90
55173;DHT22;41061;52.822;6.860;2023-08-31T08:24:58;16.20;99.90
55173;DHT22;41061;52.822;6.860;2023-08-31T08:27:24;16.30;99.90
55173;DHT22;41061;52.822;6.860;2023-08-31T08:29:49;16.30;99.90
55173;DHT22;41061;52.822;6.860;2023-08-31T08:32:15;16.40;99.90
55173;DHT22;41061;52.822;6.860;2023-08-31T08:34:41;16.50;99.90
55173;DHT22;41061;52.822;6.860;2023-08-31T08:37:06;16.70;99.90
55173;DHT22;41061;52.822;6.860;2023-08-31T08:39:32;16.70;99.90
55173;DHT22;41061;52.822;6.860;2023-08-31T08:41:59;16.70;99.90
55173;DHT22;41061;52.822;6.860;2023-08-31T08:44:25;16.70;99.90
55173;DHT22;41061;52.822;6.860;2023-08-31T08:46:52;16.70;99.90
55173;DHT22;41061;52.822;6.860;2023-08-31T08:49:18;16.80;99.90
55173;DHT22;41061;52.822;6.860;2023-08-31T08:51:45;16.80;99.90
55173;DHT22;41061;52.822;6.860;2023-08-31T08:54:13;16.80;99.90
55173;DHT22;41061;52.822;6.860;2023-08-31T08:56:39;16.80;99.90
55173;DHT22;41061;52.822;6.860;2023-08-31T09:06:26;17.60;99.90
55173;DHT22;41061;52.822;6.860;2023-08-31T09:08:56;17.70;99.90
55173;DHT22;41061;52.822;6.860;2023-08-31T09:11:22;17.90;99.90
55173;DHT22;41061;52.822;6.860;2023-08-31T09:13:49;17.70;99.90
55173;DHT22;41061;52.822;6.860;2023-08-31T09:16:29;17.60;99.90
55173;DHT22;41061;52.822;6.860;2023-08-31T09:18:56;17.30;99.90
55173;DHT22;41061;52.822;6.860;2023-08-31T09:21:23;17.10;99.90
55173;DHT22;41061;52.822;6.860;2023-08-31T09:23:59;17.00;99.90
55173;DHT22;41061;52.822;6.860;2023-08-31T09:26:25;16.80;99.90
55173;DHT22;41061;52.822;6.860;2023-08-31T09:28:52;16.20;99.90
55173;DHT22;41061;52.822;6.860;2023-08-31T09:31:18;15.80;99.90
55173;DHT22;41061;52.822;6.860;2023-08-31T09:33:51;15.40;99.90
55173;DHT22;41061;52.822;6.860;2023-08-31T09:36:17;15.10;99.90
55173;DHT22;41061;52.822;6.860;2023-08-31T09:38:44;15.00;99.90
55173;DHT22;41061;52.822;6.860;2023-08-31T09:41:09;14.90;99.90
55173;DHT22;41061;52.822;6.860;2023-08-31T09:43:35;15.00;99.90
55173;DHT22;41061;52.822;6.860;2023-08-31T09:46:03;14.90;99.90
55173;DHT22;41061;52.822;6.860;2023-08-31T09:48:29;15.00;99.90
55173;DHT22;41061;52.822;6.860;2023-08-31T09:50:56;15.10;99.90
55173;DHT22;41061;52.822;6.860;2023-08-31T09:53:24;15.20;99.90
55173;DHT22;41061;52.822;6.860;2023-08-31T09:55:51;15.50;99.90
55173;DHT22;41061;52.822;6.860;2023-08-31T09:58:19;15.90;99.90
55173;DHT22;41061;52.822;6.860;2023-08-31T10:00:46;15.90;99.90
55173;DHT22;41061;52.822;6.860;2023-08-31T10:03:14;16.30;99.90
55173;DHT22;41061;52.822;6.860;2023-08-31T10:05:43;16.50;99.90
55173;DHT22;41061;52.822;6.860;2023-08-31T10:08:09;16.70;99.90
55173;DHT22;41061;52.822;6.860;2023-08-31T10:10:35;16.80;99.90
55173;DHT22;41061;52.822;6.860;2023-08-31T10:13:01;16.90;99.90
55173;DHT22;41061;52.822;6.860;2023-08-31T10:15:34;16.90;99.90
55173;DHT22;41061;52.822;6.860;2023-08-31T10:18:06;16.90;99.90
55173;DHT22;41061;52.822;6.860;2023-08-31T10:20:33;16.80;99.90
55173;DHT22;41061;52.822;6.860;2023-08-31T10:23:03;16.80;99.90
55173;DHT22;41061;52.822;6.860;2023-08-31T10:28:21;16.90;99.90
55173;DHT22;41061;52.822;6.860;2023-08-31T10:31:10;17.10;99.90
55173;DHT22;41061;52.822;6.860;2023-08-31T10:33:42;17.20;99.90
55173;DHT22;41061;52.822;6.860;2023-08-31T10:38:41;17.00;99.90
55173;DHT22;41061;52.822;6.860;2023-08-31T10:43:52;17.50;99.90
55173;DHT22;41061;52.822;6.860;2023-08-31T10:49:01;17.90;99.90
55173;DHT22;41061;52.822;6.860;2023-08-31T10:51:43;17.90;99.90
55173;DHT22;41061;52.822;6.860;2023-08-31T11:01:58;18.20;99.90
55173;DHT22;41061;52.822;6.860;2023-08-31T11:04:26;18.20;99.90
55173;DHT22;41061;52.822;6.860;2023-08-31T11:07:16;18.10;99.90
55173;DHT22;41061;52.822;6.860;2023-08-31T11:09:44;17.90;99.90
55173;DHT22;41061;52.822;6.860;2023-08-31T11:12:10;17.60;99.90
55173;DHT22;41061;52.822;6.860;2023-08-31T11:14:36;17.20;99.90
55173;DHT22;41061;52.822;6.860;2023-08-31T11:17:02;16.80;99.90
55173;DHT22;41061;52.822;6.860;2023-08-31T11:19:30;16.60;99.90
55173;DHT22;41061;52.822;6.860;2023-08-31T11:21:57;16.70;99.90
55173;DHT22;41061;52.822;6.860;2023-08-31T11:36:42;18.30;99.90
55173;DHT22;41061;52.822;6.860;2023-08-31T11:39:09;18.20;99.90
55173;DHT22;41061;52.822;6.860;2023-08-31T11:41:36;18.00;99.90
55173;DHT22;41061;52.822;6.860;2023-08-31T11:44:09;17.90;99.90
55173;DHT22;41061;52.822;6.860;2023-08-31T11:46:38;17.70;99.90
55173;DHT22;41061;52.822;6.860;2023-08-31T11:49:05;17.60;99.90
55173;DHT22;41061;52.822;6.860;2023-08-31T11:51:32;17.70;99.90
55173;DHT22;41061;52.822;6.860;2023-08-31T11:54:02;17.80;99.90
55173;DHT22;41061;52.822;6.860;2023-08-31T11:56:44;18.00;99.90
55173;DHT22;41061;52.822;6.860;2023-08-31T11:59:16;18.10;99.90
55173;DHT22;41061;52.822;6.860;2023-08-31T12:21:39;19.20;99.90
55173;DHT22;41061;52.822;6.860;2023-08-31T13:03:09;19.30;99.90
55173;DHT22;41061;52.822;6.860;2023-08-31T13:05:39;19.30;99.90
55173;DHT22;41061;52.822;6.860;2023-08-31T13:08:05;19.20;99.90
55173;DHT22;41061;52.822;6.860;2023-08-31T13:12:58;19.60;99.90
55173;DHT22;41061;52.822;6.860;2023-08-31T13:15:23;19.90;99.90
55173;DHT22;41061;52.822;6.860;2023-08-31T13:17:49;20.10;99.90
55173;DHT22;41061;52.822;6.860;2023-08-31T13:20:15;20.10;99.90
55173;DHT22;41061;52.822;6.860;2023-08-31T13:22:41;19.90;99.90
55173;DHT22;41061;52.822;6.860;2023-08-31T13:25:06;19.80;99.90
55173;DHT22;41061;52.822;6.860;2023-08-31T13:27:32;19.80;99.90
55173;DHT22;41061;52.822;6.860;2023-08-31T13:30:01;19.70;99.90
55173;DHT22;41061;52.822;6.860;2023-08-31T13:32:31;19.50;99.90
55173;DHT22;41061;52.822;6.860;2023-08-31T13:34:57;19.40;99.90
55173;DHT22;41061;52.822;6.860;2023-08-31T13:37:23;19.40;99.90
55173;DHT22;41061;52.822;6.860;2023-08-31T13:39:50;19.30;99.90
55173;DHT22;41061;52.822;6.860;2023-08-31T13:42:20;19.20;99.90
55173;DHT22;41061;52.822;6.860;2023-08-31T13:44:45;19.10;99.90
55173;DHT22;41061;52.822;6.860;2023-08-31T13:47:11;19.20;99.90
55173;DHT22;41061;52.822;6.860;2023-08-31T13:57:00;20.50;99.90
55173;DHT22;41061;52.822;6.860;2023-08-31T13:59:26;20.40;99.90
55173;DHT22;41061;52.822;6.860;2023-08-31T14:01:54;20.30;99.90
55173;DHT22;41061;52.822;6.860;2023-08-31T14:04:20;19.80;99.90
55173;DHT22;41061;52.822;6.860;2023-08-31T14:06:47;19.10;99.90
55173;DHT22;41061;52.822;6.860;2023-08-31T14:09:14;18.60;99.90
55173;DHT22;41061;52.822;6.860;2023-08-31T14:11:40;18.20;99.90
55173;DHT22;41061;52.822;6.860;2023-08-31T14:16:36;17.90;99.90
55173;DHT22;41061;52.822;6.860;2023-08-31T14:19:03;17.80;99.90
55173;DHT22;41061;52.822;6.860;2023-08-31T14:21:29;17.90;99.90
55173;DHT22;41061;52.822;6.860;2023-08-31T14:26:24;18.30;99.90
55173;DHT22;41061;52.822;6.860;2023-08-31T14:28:51;18.50;99.90
55173;DHT22;41061;52.822;6.860;2023-08-31T14:31:17;18.90;99.90
55173;DHT22;41061;52.822;6.860;2023-08-31T14:36:09;19.40;99.90
55173;DHT22;41061;52.822;6.860;2023-08-31T14:38:35;19.40;99.90
55173;DHT22;41061;52.822;6.860;2023-08-31T14:41:01;19.50;99.90
55173;DHT22;41061;52.822;6.860;2023-08-31T14:43:27;19.40;99.90
55173;DHT22;41061;52.822;6.860;2023-08-31T14:45:53;19.30;99.90
55173;DHT22;41061;52.822;6.860;2023-08-31T14:48:19;19.10;99.90
55173;DHT22;41061;52.822;6.860;2023-08-31T14:50:44;19.00;99.90
55173;DHT22;41061;52.822;6.860;2023-08-31T14:55:37;18.90;99.90
55173;DHT22;41061;52.822;6.860;2023-08-31T14:58:04;19.10;99.90
55173;DHT22;41061;52.822;6.860;2023-08-31T15:00:31;19.20;99.90
55173;DHT22;41061;52.822;6.860;2023-08-31T15:02:57;19.30;99.90
55173;DHT22;41061;52.822;6.860;2023-08-31T15:10:17;19.70;99.90
55173;DHT22;41061;52.822;6.860;2023-08-31T15:12:44;19.70;99.90
55173;DHT22;41061;52.822;6.860;2023-08-31T15:15:10;19.50;99.90
55173;DHT22;41061;52.822;6.860;2023-08-31T15:17:35;19.10;99.90
55173;DHT22;41061;52.822;6.860;2023-08-31T15:20:01;19.00;99.90
55173;DHT22;41061;52.822;6.860;2023-08-31T15:22:29;18.90;99.90
55173;DHT22;41061;52.822;6.860;2023-08-31T15:24:54;18.90;99.90
55173;DHT22;41061;52.822;6.860;2023-08-31T15:27:20;18.80;99.90
55173;DHT22;41061;52.822;6.860;2023-08-31T15:29:46;18.90;99.90
55173;DHT22;41061;52.822;6.860;2023-08-31T15:37:04;19.00;99.90
55173;DHT22;41061;52.822;6.860;2023-08-31T15:39:29;18.90;99.90
55173;DHT22;41061;52.822;6.860;2023-08-31T15:41:56;18.90;99.90
55173;DHT22;41061;52.822;6.860;2023-08-31T15:44:22;18.90;99.90
55173;DHT22;41061;52.822;6.860;2023-08-31T15:46:47;19.00;99.90
55173;DHT22;41061;52.822;6.860;2023-08-31T15:49:13;19.00;99.90
55173;DHT22;41061;52.822;6.860;2023-08-31T15:51:39;19.10;99.90
55173;DHT22;41061;52.822;6.860;2023-08-31T15:54:05;19.10;99.90
55173;DHT22;41061;52.822;6.860;2023-08-31T15:56:31;19.10;99.90
55173;DHT22;41061;52.822;6.860;2023-08-31T15:58:58;19.10;99.90
55173;DHT22;41061;52.822;6.860;2023-08-31T16:01:24;19.00;99.90
55173;DHT22;41061;52.822;6.860;2023-08-31T16:03:51;18.90;99.90
55173;DHT22;41061;52.822;6.860;2023-08-31T16:06:17;18.80;99.90
55173;DHT22;41061;52.822;6.860;2023-08-31T16:08:43;18.70;99.90
55173;DHT22;41061;52.822;6.860;2023-08-31T16:11:08;18.70;99.90
55173;DHT22;41061;52.822;6.860;2023-08-31T16:13:34;18.60;99.90
55173;DHT22;41061;52.822;6.860;2023-08-31T16:16:01;18.60;99.90
55173;DHT22;41061;52.822;6.860;2023-08-31T16:18:27;18.60;99.90
55173;DHT22;41061;52.822;6.860;2023-08-31T16:20:53;18.50;99.90
55173;DHT22;41061;52.822;6.860;2023-08-31T16:23:19;18.50;99.90
55173;DHT22;41061;52.822;6.860;2023-08-31T16:25:44;18.40;99.90
55173;DHT22;41061;52.822;6.860;2023-08-31T16:28:10;18.30;99.90
55173;DHT22;41061;52.822;6.860;2023-08-31T16:30:36;18.30;99.90
55173;DHT22;41061;52.822;6.860;2023-08-31T16:33:02;18.30;99.90
55173;DHT22;41061;52.822;6.860;2023-08-31T16:35:28;18.30;99.90
55173;DHT22;41061;52.822;6.860;2023-08-31T16:37:54;18.30;99.90
55173;DHT22;41061;52.822;6.860;2023-08-31T16:40:20;18.30;99.90
55173;DHT22;41061;52.822;6.860;2023-08-31T16:42:46;18.20;99.90
55173;DHT22;41061;52.822;6.860;2023-08-31T16:45:12;18.20;99.90
55173;DHT22;41061;52.822;6.860;2023-08-31T16:47:38;18.10;99.90
55173;DHT22;41061;52.822;6.860;2023-08-31T16:50:05;18.10;99.90
55173;DHT22;41061;52.822;6.860;2023-08-31T16:52:31;18.00;99.90
55173;DHT22;41061;52.822;6.860;2023-08-31T16:54:58;17.90;99.90
55173;DHT22;41061;52.822;6.860;2023-08-31T16:57:24;17.90;99.90
55173;DHT22;41061;52.822;6.860;2023-08-31T16:59:49;17.80;99.90
55173;DHT22;41061;52.822;6.860;2023-08-31T17:02:15;17.70;99.90
55173;DHT22;41061;52.822;6.860;2023-08-31T17:04:41;17.80;99.90
55173;DHT22;41061;52.822;6.860;2023-08-31T17:07:07;17.70;99.90
55173;DHT22;41061;52.822;6.860;2023-08-31T17:09:33;17.60;99.90
55173;DHT22;41061;52.822;6.860;2023-08-31T17:11:59;17.60;99.90
55173;DHT22;41061;52.822;6.860;2023-08-31T17:14:25;17.50;99.90
55173;DHT22;41061;52.822;6.860;2023-08-31T17:16:51;17.40;99.90
55173;DHT22;41061;52.822;6.860;2023-08-31T17:19:17;17.40;99.90
55173;DHT22;41061;52.822;6.860;2023-08-31T17:21:43;17.30;99.90
55173;DHT22;41061;52.822;6.860;2023-08-31T17:24:09;17.30;99.90
55173;DHT22;41061;52.822;6.860;2023-08-31T17:26:35;17.20;99.90
55173;DHT22;41061;52.822;6.860;2023-08-31T17:29:01;17.20;99.90
55173;DHT22;41061;52.822;6.860;2023-08-31T17:31:30;17.10;99.90
55173;DHT22;41061;52.822;6.860;2023-08-31T17:33:56;17.10;99.90
55173;DHT22;41061;52.822;6.860;2023-08-31T17:36:26;17.00;99.90
55173;DHT22;41061;52.822;6.860;2023-08-31T17:38:52;17.00;99.90
55173;DHT22;41061;52.822;6.860;2023-08-31T17:41:18;16.90;99.90
55173;DHT22;41061;52.822;6.860;2023-08-31T17:43:44;16.90;99.90
55173;DHT22;41061;52.822;6.860;2023-08-31T17:48:36;16.80;99.90
55173;DHT22;41061;52.822;6.860;2023-08-31T17:51:03;16.70;99.90
55173;DHT22;41061;52.822;6.860;2023-08-31T17:53:29;16.60;99.90
55173;DHT22;41061;52.822;6.860;2023-08-31T17:55:56;16.60;99.90
55173;DHT22;41061;52.822;6.860;2023-08-31T17:58:21;16.50;99.90